sensor_id;sensor_type;location;lat;lon;timestamp;P1;durP1;ratioP1;P2;durP2;ratioP2
64387;SDS011;50709;52.648;4.764;2023-08-01T00:01:29;10.15;;;3.83;;
64387;SDS011;50709;52.648;4.764;2023-08-01T00:03:54;12.23;;;3.67;;
64387;SDS011;50709;52.648;4.764;2023-08-01T00:06:20;8.55;;;3.40;;
64387;SDS011;50709;52.648;4.764;2023-08-01T00:08:47;10.65;;;3.90;;
64387;SDS011;50709;52.648;4.764;2023-08-01T00:11:12;9.85;;;3.80;;
64387;SDS011;50709;52.648;4.764;2023-08-01T00:13:39;12.18;;;3.65;;
64387;SDS011;50709;52.648;4.764;2023-08-01T00:16:05;10.05;;;3.75;;
64387;SDS011;50709;52.648;4.764;2023-08-01T00:18:30;10.05;;;3.80;;
64387;SDS011;50709;52.648;4.764;2023-08-01T00:20:56;7.85;;;4.00;;
64387;SDS011;50709;52.648;4.764;2023-08-01T00:23:21;11.13;;;3.70;;
64387;SDS011;50709;52.648;4.764;2023-08-01T00:25:46;9.30;;;3.38;;
64387;SDS011;50709;52.648;4.764;2023-08-01T00:28:16;10.18;;;3.72;;
64387;SDS011;50709;52.648;4.764;2023-08-01T00:30:46;7.95;;;3.50;;
64387;SDS011;50709;52.648;4.764;2023-08-01T00:33:12;12.05;;;3.50;;
64387;SDS011;50709;52.648;4.764;2023-08-01T00:35:38;8.18;;;3.78;;
64387;SDS011;50709;52.648;4.764;2023-08-01T00:38:03;9.52;;;3.60;;
64387;SDS011;50709;52.648;4.764;2023-08-01T00:40:32;8.73;;;3.65;;
64387;SDS011;50709;52.648;4.764;2023-08-01T00:42:58;9.52;;;3.22;;
64387;SDS011;50709;52.648;4.764;2023-08-01T00:45:24;8.27;;;4.15;;
64387;SDS011;50709;52.648;4.764;2023-08-01T00:47:51;7.95;;;3.40;;
64387;SDS011;50709;52.648;4.764;2023-08-01T00:50:17;10.43;;;3.75;;
64387;SDS011;50709;52.648;4.764;2023-08-01T00:52:45;9.98;;;4.05;;
64387;SDS011;50709;52.648;4.764;2023-08-01T00:55:12;8.27;;;3.95;;
64387;SDS011;50709;52.648;4.764;2023-08-01T00:57:38;9.00;;;4.03;;
64387;SDS011;50709;52.648;4.764;2023-08-01T01:00:04;8.05;;;3.67;;
64387;SDS011;50709;52.648;4.764;2023-08-01T01:02:29;10.23;;;4.10;;
64387;SDS011;50709;52.648;4.764;2023-08-01T01:04:55;10.23;;;3.92;;
64387;SDS011;50709;52.648;4.764;2023-08-01T01:07:20;9.63;;;3.70;;
64387;SDS011;50709;52.648;4.764;2023-08-01T01:09:47;12.43;;;4.38;;
64387;SDS011;50709;52.648;4.764;2023-08-01T01:12:13;9.75;;;3.80;;
64387;SDS011;50709;52.648;4.764;2023-08-01T01:14:38;10.35;;;3.75;;
64387;SDS011;50709;52.648;4.764;2023-08-01T01:17:04;9.18;;;3.88;;
64387;SDS011;50709;52.648;4.764;2023-08-01T01:19:30;10.20;;;3.88;;
64387;SDS011;50709;52.648;4.764;2023-08-01T01:21:55;7.70;;;3.83;;
64387;SDS011;50709;52.648;4.764;2023-08-01T01:24:22;8.70;;;3.42;;
64387;SDS011;50709;52.648;4.764;2023-08-01T01:26:49;6.63;;;3.00;;
64387;SDS011;50709;52.648;4.764;2023-08-01T01:29:15;7.35;;;2.75;;
64387;SDS011;50709;52.648;4.764;2023-08-01T01:31:41;9.27;;;2.67;;
64387;SDS011;50709;52.648;4.764;2023-08-01T01:34:07;4.30;;;2.00;;
64387;SDS011;50709;52.648;4.764;2023-08-01T01:36:32;5.78;;;2.40;;
64387;SDS011;50709;52.648;4.764;2023-08-01T01:38:59;5.85;;;2.08;;
64387;SDS011;50709;52.648;4.764;2023-08-01T01:41:24;6.45;;;1.98;;
64387;SDS011;50709;52.648;4.764;2023-08-01T01:43:50;6.50;;;2.40;;
64387;SDS011;50709;52.648;4.764;2023-08-01T01:46:16;4.57;;;1.80;;
64387;SDS011;50709;52.648;4.764;2023-08-01T01:48:41;7.55;;;2.80;;
64387;SDS011;50709;52.648;4.764;2023-08-01T01:51:07;4.68;;;2.30;;
64387;SDS011;50709;52.648;4.764;2023-08-01T01:53:33;4.95;;;2.40;;
64387;SDS011;50709;52.648;4.764;2023-08-01T01:55:58;4.05;;;2.00;;
64387;SDS011;50709;52.648;4.764;2023-08-01T01:58:23;4.90;;;1.90;;
64387;SDS011;50709;52.648;4.764;2023-08-01T02:00:49;3.63;;;1.80;;
64387;SDS011;50709;52.648;4.764;2023-08-01T02:03:14;3.25;;;1.77;;
64387;SDS011;50709;52.648;4.764;2023-08-01T02:05:40;5.20;;;1.90;;
64387;SDS011;50709;52.648;4.764;2023-08-01T02:08:06;6.22;;;2.30;;
64387;SDS011;50709;52.648;4.764;2023-08-01T02:10:32;5.50;;;1.77;;
64387;SDS011;50709;52.648;4.764;2023-08-01T02:12:57;5.63;;;2.63;;
64387;SDS011;50709;52.648;4.764;2023-08-01T02:15:23;5.03;;;1.65;;
64387;SDS011;50709;52.648;4.764;2023-08-01T02:17:48;8.02;;;2.20;;
64387;SDS011;50709;52.648;4.764;2023-08-01T02:20:14;5.32;;;1.75;;
64387;SDS011;50709;52.648;4.764;2023-08-01T02:22:39;3.38;;;2.70;;
64387;SDS011;50709;52.648;4.764;2023-08-01T02:25:05;4.25;;;1.95;;
64387;SDS011;50709;52.648;4.764;2023-08-01T02:27:30;5.53;;;2.05;;
64387;SDS011;50709;52.648;4.764;2023-08-01T02:29:56;5.07;;;2.10;;
64387;SDS011;50709;52.648;4.764;2023-08-01T02:32:21;5.00;;;2.03;;
64387;SDS011;50709;52.648;4.764;2023-08-01T02:34:47;3.78;;;1.95;;
64387;SDS011;50709;52.648;4.764;2023-08-01T02:37:12;6.53;;;2.40;;
64387;SDS011;50709;52.648;4.764;2023-08-01T02:39:38;7.03;;;2.67;;
64387;SDS011;50709;52.648;4.764;2023-08-01T02:42:03;6.30;;;2.72;;
64387;SDS011;50709;52.648;4.764;2023-08-01T02:44:29;6.15;;;2.70;;
64387;SDS011;50709;52.648;4.764;2023-08-01T02:46:54;7.18;;;2.75;;
64387;SDS011;50709;52.648;4.764;2023-08-01T02:49:20;3.92;;;2.40;;
64387;SDS011;50709;52.648;4.764;2023-08-01T02:51:45;4.95;;;2.30;;
64387;SDS011;50709;52.648;4.764;2023-08-01T02:54:10;5.20;;;2.40;;
64387;SDS011;50709;52.648;4.764;2023-08-01T02:56:36;5.85;;;2.90;;
64387;SDS011;50709;52.648;4.764;2023-08-01T02:59:06;8.10;;;3.35;;
64387;SDS011;50709;52.648;4.764;2023-08-01T03:01:35;6.70;;;2.83;;
64387;SDS011;50709;52.648;4.764;2023-08-01T03:04:04;9.13;;;3.42;;
64387;SDS011;50709;52.648;4.764;2023-08-01T03:06:31;5.95;;;2.50;;
64387;SDS011;50709;52.648;4.764;2023-08-01T03:08:57;8.35;;;2.97;;
64387;SDS011;50709;52.648;4.764;2023-08-01T03:11:23;6.70;;;2.85;;
64387;SDS011;50709;52.648;4.764;2023-08-01T03:13:48;8.00;;;2.67;;
64387;SDS011;50709;52.648;4.764;2023-08-01T03:16:13;5.47;;;2.25;;
64387;SDS011;50709;52.648;4.764;2023-08-01T03:18:39;5.75;;;2.42;;
64387;SDS011;50709;52.648;4.764;2023-08-01T03:21:04;5.80;;;2.33;;
64387;SDS011;50709;52.648;4.764;2023-08-01T03:23:30;10.27;;;2.85;;
64387;SDS011;50709;52.648;4.764;2023-08-01T03:25:55;4.13;;;2.28;;
64387;SDS011;50709;52.648;4.764;2023-08-01T03:28:21;6.60;;;2.38;;
64387;SDS011;50709;52.648;4.764;2023-08-01T03:30:47;3.88;;;2.00;;
64387;SDS011;50709;52.648;4.764;2023-08-01T03:33:15;5.38;;;2.22;;
64387;SDS011;50709;52.648;4.764;2023-08-01T03:35:40;4.00;;;2.03;;
64387;SDS011;50709;52.648;4.764;2023-08-01T03:38:06;6.78;;;2.08;;
64387;SDS011;50709;52.648;4.764;2023-08-01T03:40:31;5.05;;;1.90;;
64387;SDS011;50709;52.648;4.764;2023-08-01T03:42:57;5.25;;;2.13;;
64387;SDS011;50709;52.648;4.764;2023-08-01T03:45:22;7.47;;;2.65;;
64387;SDS011;50709;52.648;4.764;2023-08-01T03:47:48;7.10;;;2.35;;
64387;SDS011;50709;52.648;4.764;2023-08-01T03:50:13;5.72;;;2.00;;
64387;SDS011;50709;52.648;4.764;2023-08-01T03:52:39;7.40;;;2.30;;
64387;SDS011;50709;52.648;4.764;2023-08-01T03:55:05;6.70;;;2.38;;
64387;SDS011;50709;52.648;4.764;2023-08-01T03:57:30;5.43;;;1.98;;
64387;SDS011;50709;52.648;4.764;2023-08-01T03:59:58;7.35;;;2.72;;
64387;SDS011;50709;52.648;4.764;2023-08-01T04:02:24;7.38;;;2.95;;
64387;SDS011;50709;52.648;4.764;2023-08-01T04:04:50;7.38;;;2.70;;
64387;SDS011;50709;52.648;4.764;2023-08-01T04:07:15;7.75;;;2.60;;
64387;SDS011;50709;52.648;4.764;2023-08-01T04:09:41;10.18;;;3.75;;
64387;SDS011;50709;52.648;4.764;2023-08-01T04:12:06;6.95;;;3.20;;
64387;SDS011;50709;52.648;4.764;2023-08-01T04:14:32;7.90;;;2.83;;
64387;SDS011;50709;52.648;4.764;2023-08-01T04:16:58;5.20;;;2.63;;
64387;SDS011;50709;52.648;4.764;2023-08-01T04:19:23;6.95;;;3.17;;
64387;SDS011;50709;52.648;4.764;2023-08-01T04:21:49;6.78;;;2.65;;
64387;SDS011;50709;52.648;4.764;2023-08-01T04:24:16;7.45;;;2.97;;
64387;SDS011;50709;52.648;4.764;2023-08-01T04:26:42;8.95;;;3.25;;
64387;SDS011;50709;52.648;4.764;2023-08-01T04:29:07;7.07;;;3.03;;
64387;SDS011;50709;52.648;4.764;2023-08-01T04:31:32;5.78;;;2.60;;
64387;SDS011;50709;52.648;4.764;2023-08-01T04:33:58;9.10;;;3.22;;
64387;SDS011;50709;52.648;4.764;2023-08-01T04:36:23;6.75;;;3.00;;
64387;SDS011;50709;52.648;4.764;2023-08-01T04:38:49;7.38;;;3.30;;
64387;SDS011;50709;52.648;4.764;2023-08-01T04:41:14;12.48;;;3.15;;
64387;SDS011;50709;52.648;4.764;2023-08-01T04:43:40;9.95;;;2.90;;
64387;SDS011;50709;52.648;4.764;2023-08-01T04:46:05;6.70;;;2.78;;
64387;SDS011;50709;52.648;4.764;2023-08-01T04:48:31;9.90;;;3.20;;
64387;SDS011;50709;52.648;4.764;2023-08-01T04:50:56;6.75;;;2.63;;
64387;SDS011;50709;52.648;4.764;2023-08-01T04:53:21;7.35;;;2.75;;
64387;SDS011;50709;52.648;4.764;2023-08-01T04:55:47;8.93;;;3.00;;
64387;SDS011;50709;52.648;4.764;2023-08-01T04:58:12;7.38;;;2.92;;
64387;SDS011;50709;52.648;4.764;2023-08-01T05:00:38;9.60;;;3.72;;
64387;SDS011;50709;52.648;4.764;2023-08-01T05:03:06;7.40;;;2.92;;
64387;SDS011;50709;52.648;4.764;2023-08-01T05:05:31;8.18;;;3.58;;
64387;SDS011;50709;52.648;4.764;2023-08-01T05:07:57;6.97;;;2.83;;
64387;SDS011;50709;52.648;4.764;2023-08-01T05:10:22;5.80;;;2.80;;
64387;SDS011;50709;52.648;4.764;2023-08-01T05:12:48;5.63;;;2.72;;
64387;SDS011;50709;52.648;4.764;2023-08-01T05:15:13;6.82;;;3.28;;
64387;SDS011;50709;52.648;4.764;2023-08-01T05:17:38;7.85;;;3.35;;
64387;SDS011;50709;52.648;4.764;2023-08-01T05:20:04;5.55;;;2.90;;
64387;SDS011;50709;52.648;4.764;2023-08-01T05:22:30;7.07;;;3.05;;
64387;SDS011;50709;52.648;4.764;2023-08-01T05:24:56;6.60;;;2.85;;
64387;SDS011;50709;52.648;4.764;2023-08-01T05:27:21;6.47;;;2.72;;
64387;SDS011;50709;52.648;4.764;2023-08-01T05:29:46;7.07;;;2.92;;
64387;SDS011;50709;52.648;4.764;2023-08-01T05:32:12;9.32;;;3.83;;
64387;SDS011;50709;52.648;4.764;2023-08-01T05:34:37;6.15;;;2.95;;
64387;SDS011;50709;52.648;4.764;2023-08-01T05:37:03;17.40;;;6.10;;
64387;SDS011;50709;52.648;4.764;2023-08-01T05:39:28;10.50;;;4.70;;
64387;SDS011;50709;52.648;4.764;2023-08-01T05:41:54;16.33;;;5.05;;
64387;SDS011;50709;52.648;4.764;2023-08-01T05:44:19;16.98;;;5.50;;
64387;SDS011;50709;52.648;4.764;2023-08-01T05:46:44;11.35;;;4.47;;
64387;SDS011;50709;52.648;4.764;2023-08-01T05:49:10;14.32;;;4.70;;
64387;SDS011;50709;52.648;4.764;2023-08-01T05:51:35;11.77;;;4.07;;
64387;SDS011;50709;52.648;4.764;2023-08-01T05:54:01;14.20;;;5.35;;
64387;SDS011;50709;52.648;4.764;2023-08-01T05:56:26;9.57;;;4.57;;
64387;SDS011;50709;52.648;4.764;2023-08-01T05:58:52;17.33;;;5.88;;
64387;SDS011;50709;52.648;4.764;2023-08-01T06:01:18;8.65;;;4.00;;
64387;SDS011;50709;52.648;4.764;2023-08-01T06:03:44;15.48;;;4.32;;
64387;SDS011;50709;52.648;4.764;2023-08-01T06:06:10;16.15;;;4.90;;
64387;SDS011;50709;52.648;4.764;2023-08-01T06:08:35;15.25;;;5.50;;
64387;SDS011;50709;52.648;4.764;2023-08-01T06:11:00;9.80;;;3.72;;
64387;SDS011;50709;52.648;4.764;2023-08-01T06:13:26;7.68;;;4.00;;
64387;SDS011;50709;52.648;4.764;2023-08-01T06:15:52;11.52;;;4.03;;
64387;SDS011;50709;52.648;4.764;2023-08-01T06:18:17;10.52;;;4.10;;
64387;SDS011;50709;52.648;4.764;2023-08-01T06:20:42;11.25;;;3.60;;
64387;SDS011;50709;52.648;4.764;2023-08-01T06:23:08;14.77;;;3.80;;
64387;SDS011;50709;52.648;4.764;2023-08-01T06:25:33;8.82;;;3.80;;
64387;SDS011;50709;52.648;4.764;2023-08-01T06:27:59;11.32;;;4.55;;
64387;SDS011;50709;52.648;4.764;2023-08-01T06:30:24;10.95;;;3.83;;
64387;SDS011;50709;52.648;4.764;2023-08-01T06:32:49;11.25;;;3.80;;
64387;SDS011;50709;52.648;4.764;2023-08-01T06:35:15;7.75;;;2.90;;
64387;SDS011;50709;52.648;4.764;2023-08-01T06:37:40;7.38;;;3.78;;
64387;SDS011;50709;52.648;4.764;2023-08-01T06:40:06;11.13;;;3.85;;
64387;SDS011;50709;52.648;4.764;2023-08-01T06:42:33;11.32;;;3.67;;
64387;SDS011;50709;52.648;4.764;2023-08-01T06:44:58;7.03;;;3.45;;
64387;SDS011;50709;52.648;4.764;2023-08-01T06:47:23;11.35;;;3.67;;
64387;SDS011;50709;52.648;4.764;2023-08-01T06:49:50;10.52;;;4.00;;
64387;SDS011;50709;52.648;4.764;2023-08-01T06:52:16;8.48;;;3.90;;
64387;SDS011;50709;52.648;4.764;2023-08-01T06:54:41;9.27;;;3.50;;
64387;SDS011;50709;52.648;4.764;2023-08-01T06:57:06;8.18;;;3.45;;
64387;SDS011;50709;52.648;4.764;2023-08-01T06:59:32;10.18;;;3.85;;
64387;SDS011;50709;52.648;4.764;2023-08-01T07:01:57;7.43;;;2.78;;
64387;SDS011;50709;52.648;4.764;2023-08-01T07:04:23;8.65;;;3.00;;
64387;SDS011;50709;52.648;4.764;2023-08-01T07:06:48;8.32;;;3.58;;
64387;SDS011;50709;52.648;4.764;2023-08-01T07:09:14;10.40;;;4.20;;
64387;SDS011;50709;52.648;4.764;2023-08-01T07:11:40;8.93;;;3.50;;
64387;SDS011;50709;52.648;4.764;2023-08-01T07:14:05;8.63;;;3.30;;
64387;SDS011;50709;52.648;4.764;2023-08-01T07:16:31;8.35;;;3.50;;
64387;SDS011;50709;52.648;4.764;2023-08-01T07:18:57;8.00;;;3.40;;
64387;SDS011;50709;52.648;4.764;2023-08-01T07:21:24;7.05;;;3.30;;
64387;SDS011;50709;52.648;4.764;2023-08-01T07:23:49;8.77;;;3.50;;
64387;SDS011;50709;52.648;4.764;2023-08-01T07:26:15;7.78;;;3.35;;
64387;SDS011;50709;52.648;4.764;2023-08-01T07:28:40;7.07;;;3.30;;
64387;SDS011;50709;52.648;4.764;2023-08-01T07:31:06;6.47;;;2.63;;
64387;SDS011;50709;52.648;4.764;2023-08-01T07:33:32;7.25;;;3.10;;
64387;SDS011;50709;52.648;4.764;2023-08-01T07:35:58;8.32;;;3.40;;
64387;SDS011;50709;52.648;4.764;2023-08-01T07:38:24;6.18;;;2.97;;
64387;SDS011;50709;52.648;4.764;2023-08-01T07:40:49;7.53;;;3.17;;
64387;SDS011;50709;52.648;4.764;2023-08-01T07:43:16;7.63;;;3.38;;
64387;SDS011;50709;52.648;4.764;2023-08-01T07:45:41;7.72;;;3.00;;
64387;SDS011;50709;52.648;4.764;2023-08-01T07:48:07;6.78;;;3.38;;
64387;SDS011;50709;52.648;4.764;2023-08-01T07:50:32;7.55;;;3.10;;
64387;SDS011;50709;52.648;4.764;2023-08-01T07:52:57;8.00;;;3.28;;
64387;SDS011;50709;52.648;4.764;2023-08-01T07:55:23;4.38;;;2.90;;
64387;SDS011;50709;52.648;4.764;2023-08-01T07:57:48;8.05;;;3.50;;
64387;SDS011;50709;52.648;4.764;2023-08-01T08:00:14;7.32;;;3.20;;
64387;SDS011;50709;52.648;4.764;2023-08-01T08:02:45;10.35;;;3.33;;
64387;SDS011;50709;52.648;4.764;2023-08-01T08:05:11;9.05;;;3.45;;
64387;SDS011;50709;52.648;4.764;2023-08-01T08:07:37;10.27;;;3.00;;
64387;SDS011;50709;52.648;4.764;2023-08-01T08:10:04;6.93;;;2.97;;
64387;SDS011;50709;52.648;4.764;2023-08-01T08:12:30;10.93;;;3.72;;
64387;SDS011;50709;52.648;4.764;2023-08-01T08:14:55;7.53;;;2.90;;
64387;SDS011;50709;52.648;4.764;2023-08-01T08:17:21;6.65;;;2.88;;
64387;SDS011;50709;52.648;4.764;2023-08-01T08:19:46;7.90;;;3.50;;
64387;SDS011;50709;52.648;4.764;2023-08-01T08:22:12;6.95;;;3.30;;
64387;SDS011;50709;52.648;4.764;2023-08-01T08:24:37;8.63;;;3.20;;
64387;SDS011;50709;52.648;4.764;2023-08-01T08:27:02;5.45;;;2.95;;
64387;SDS011;50709;52.648;4.764;2023-08-01T08:29:28;9.32;;;3.28;;
64387;SDS011;50709;52.648;4.764;2023-08-01T08:31:55;7.88;;;2.97;;
64387;SDS011;50709;52.648;4.764;2023-08-01T08:34:20;6.20;;;3.83;;
64387;SDS011;50709;52.648;4.764;2023-08-01T08:36:46;5.88;;;2.70;;
64387;SDS011;50709;52.648;4.764;2023-08-01T08:39:11;7.72;;;3.28;;
64387;SDS011;50709;52.648;4.764;2023-08-01T08:41:43;5.18;;;2.80;;
64387;SDS011;50709;52.648;4.764;2023-08-01T08:44:11;8.60;;;3.20;;
64387;SDS011;50709;52.648;4.764;2023-08-01T08:46:41;9.60;;;3.53;;
64387;SDS011;50709;52.648;4.764;2023-08-01T08:49:08;8.00;;;3.33;;
64387;SDS011;50709;52.648;4.764;2023-08-01T08:51:34;8.60;;;3.80;;
64387;SDS011;50709;52.648;4.764;2023-08-01T08:54:01;9.68;;;4.25;;
64387;SDS011;50709;52.648;4.764;2023-08-01T08:56:28;9.55;;;3.47;;
64387;SDS011;50709;52.648;4.764;2023-08-01T08:58:53;8.80;;;3.05;;
64387;SDS011;50709;52.648;4.764;2023-08-01T09:01:20;9.43;;;3.30;;
64387;SDS011;50709;52.648;4.764;2023-08-01T09:03:45;8.35;;;3.25;;
64387;SDS011;50709;52.648;4.764;2023-08-01T09:08:40;9.25;;;3.20;;
64387;SDS011;50709;52.648;4.764;2023-08-01T09:11:15;10.30;;;3.47;;
64387;SDS011;50709;52.648;4.764;2023-08-01T09:13:40;7.72;;;3.08;;
64387;SDS011;50709;52.648;4.764;2023-08-01T09:16:06;5.60;;;2.72;;
64387;SDS011;50709;52.648;4.764;2023-08-01T09:18:32;7.47;;;2.97;;
64387;SDS011;50709;52.648;4.764;2023-08-01T09:20:58;7.78;;;3.35;;
64387;SDS011;50709;52.648;4.764;2023-08-01T09:23:27;5.75;;;3.13;;
64387;SDS011;50709;52.648;4.764;2023-08-01T09:25:53;8.57;;;2.97;;
64387;SDS011;50709;52.648;4.764;2023-08-01T09:28:19;7.55;;;3.05;;
64387;SDS011;50709;52.648;4.764;2023-08-01T09:30:50;8.05;;;3.35;;
64387;SDS011;50709;52.648;4.764;2023-08-01T09:33:20;6.63;;;3.17;;
64387;SDS011;50709;52.648;4.764;2023-08-01T09:35:48;6.97;;;3.00;;
64387;SDS011;50709;52.648;4.764;2023-08-01T09:38:15;7.35;;;3.17;;
64387;SDS011;50709;52.648;4.764;2023-08-01T09:40:42;7.30;;;3.40;;
64387;SDS011;50709;52.648;4.764;2023-08-01T09:43:09;7.05;;;3.15;;
64387;SDS011;50709;52.648;4.764;2023-08-01T09:45:35;5.07;;;3.05;;
64387;SDS011;50709;52.648;4.764;2023-08-01T09:48:01;10.30;;;3.08;;
64387;SDS011;50709;52.648;4.764;2023-08-01T09:50:28;6.88;;;3.47;;
64387;SDS011;50709;52.648;4.764;2023-08-01T09:52:54;5.88;;;2.83;;
64387;SDS011;50709;52.648;4.764;2023-08-01T09:55:32;5.90;;;3.22;;
64387;SDS011;50709;52.648;4.764;2023-08-01T09:57:59;7.28;;;3.30;;
64387;SDS011;50709;52.648;4.764;2023-08-01T10:00:30;7.88;;;2.97;;
64387;SDS011;50709;52.648;4.764;2023-08-01T10:02:57;6.60;;;2.45;;
64387;SDS011;50709;52.648;4.764;2023-08-01T10:05:26;4.40;;;2.53;;
64387;SDS011;50709;52.648;4.764;2023-08-01T10:07:56;7.80;;;2.60;;
64387;SDS011;50709;52.648;4.764;2023-08-01T10:10:25;5.38;;;3.08;;
64387;SDS011;50709;52.648;4.764;2023-08-01T10:12:50;4.85;;;3.03;;
64387;SDS011;50709;52.648;4.764;2023-08-01T10:15:17;6.18;;;2.90;;
64387;SDS011;50709;52.648;4.764;2023-08-01T10:17:42;7.03;;;3.20;;
64387;SDS011;50709;52.648;4.764;2023-08-01T10:20:09;11.32;;;3.28;;
64387;SDS011;50709;52.648;4.764;2023-08-01T10:22:35;5.03;;;3.00;;
64387;SDS011;50709;52.648;4.764;2023-08-01T10:25:01;6.93;;;3.00;;
64387;SDS011;50709;52.648;4.764;2023-08-01T10:27:28;8.52;;;3.45;;
64387;SDS011;50709;52.648;4.764;2023-08-01T10:30:01;8.70;;;3.60;;
64387;SDS011;50709;52.648;4.764;2023-08-01T10:32:35;4.30;;;2.65;;
64387;SDS011;50709;52.648;4.764;2023-08-01T10:35:02;8.40;;;2.88;;
64387;SDS011;50709;52.648;4.764;2023-08-01T10:37:38;7.28;;;3.30;;
64387;SDS011;50709;52.648;4.764;2023-08-01T10:40:07;5.72;;;2.78;;
64387;SDS011;50709;52.648;4.764;2023-08-01T10:45:06;8.93;;;3.10;;
64387;SDS011;50709;52.648;4.764;2023-08-01T10:47:31;10.20;;;3.35;;
64387;SDS011;50709;52.648;4.764;2023-08-01T10:49:57;7.20;;;3.10;;
64387;SDS011;50709;52.648;4.764;2023-08-01T10:52:23;6.85;;;3.10;;
64387;SDS011;50709;52.648;4.764;2023-08-01T10:54:59;5.53;;;3.30;;
64387;SDS011;50709;52.648;4.764;2023-08-01T10:57:29;7.13;;;2.97;;
64387;SDS011;50709;52.648;4.764;2023-08-01T10:59:56;7.20;;;2.90;;
64387;SDS011;50709;52.648;4.764;2023-08-01T11:02:23;7.45;;;2.92;;
64387;SDS011;50709;52.648;4.764;2023-08-01T11:04:54;4.93;;;2.70;;
64387;SDS011;50709;52.648;4.764;2023-08-01T11:07:23;6.72;;;2.97;;
64387;SDS011;50709;52.648;4.764;2023-08-01T11:09:49;4.78;;;3.00;;
64387;SDS011;50709;52.648;4.764;2023-08-01T11:12:14;11.45;;;3.00;;
64387;SDS011;50709;52.648;4.764;2023-08-01T11:14:40;5.63;;;3.05;;
64387;SDS011;50709;52.648;4.764;2023-08-01T11:17:05;5.18;;;3.20;;
64387;SDS011;50709;52.648;4.764;2023-08-01T11:19:31;4.68;;;2.63;;
64387;SDS011;50709;52.648;4.764;2023-08-01T11:21:57;4.68;;;2.97;;
64387;SDS011;50709;52.648;4.764;2023-08-01T11:24:23;9.63;;;2.72;;
64387;SDS011;50709;52.648;4.764;2023-08-01T11:26:50;8.05;;;3.28;;
64387;SDS011;50709;52.648;4.764;2023-08-01T11:29:17;6.75;;;2.67;;
64387;SDS011;50709;52.648;4.764;2023-08-01T11:31:55;6.20;;;2.75;;
64387;SDS011;50709;52.648;4.764;2023-08-01T11:34:22;6.57;;;3.00;;
64387;SDS011;50709;52.648;4.764;2023-08-01T11:36:49;4.43;;;2.60;;
64387;SDS011;50709;52.648;4.764;2023-08-01T11:39:15;7.20;;;3.00;;
64387;SDS011;50709;52.648;4.764;2023-08-01T11:41:42;5.53;;;2.72;;
64387;SDS011;50709;52.648;4.764;2023-08-01T11:44:08;7.93;;;3.55;;
64387;SDS011;50709;52.648;4.764;2023-08-01T11:46:36;9.00;;;3.10;;
64387;SDS011;50709;52.648;4.764;2023-08-01T11:49:02;6.45;;;2.60;;
64387;SDS011;50709;52.648;4.764;2023-08-01T11:51:28;4.63;;;2.70;;
64387;SDS011;50709;52.648;4.764;2023-08-01T11:54:01;7.57;;;2.75;;
64387;SDS011;50709;52.648;4.764;2023-08-01T11:56:28;7.85;;;3.00;;
64387;SDS011;50709;52.648;4.764;2023-08-01T11:58:54;7.88;;;2.90;;
64387;SDS011;50709;52.648;4.764;2023-08-01T12:01:19;7.60;;;3.13;;
64387;SDS011;50709;52.648;4.764;2023-08-01T12:03:52;8.90;;;2.88;;
64387;SDS011;50709;52.648;4.764;2023-08-01T12:06:22;5.47;;;2.80;;
64387;SDS011;50709;52.648;4.764;2023-08-01T12:08:52;5.22;;;2.55;;
64387;SDS011;50709;52.648;4.764;2023-08-01T12:11:21;5.93;;;2.70;;
64387;SDS011;50709;52.648;4.764;2023-08-01T12:13:47;6.97;;;2.80;;
64387;SDS011;50709;52.648;4.764;2023-08-01T12:16:13;7.40;;;3.00;;
64387;SDS011;50709;52.648;4.764;2023-08-01T12:18:42;7.10;;;2.55;;
64387;SDS011;50709;52.648;4.764;2023-08-01T12:21:08;4.18;;;2.30;;
64387;SDS011;50709;52.648;4.764;2023-08-01T12:23:33;5.03;;;2.20;;
64387;SDS011;50709;52.648;4.764;2023-08-01T12:26:00;4.75;;;2.42;;
64387;SDS011;50709;52.648;4.764;2023-08-01T12:28:26;6.35;;;2.58;;
64387;SDS011;50709;52.648;4.764;2023-08-01T12:30:51;6.82;;;2.08;;
64387;SDS011;50709;52.648;4.764;2023-08-01T12:33:16;4.13;;;2.15;;
64387;SDS011;50709;52.648;4.764;2023-08-01T12:35:42;4.78;;;2.30;;
64387;SDS011;50709;52.648;4.764;2023-08-01T12:38:07;6.32;;;2.53;;
64387;SDS011;50709;52.648;4.764;2023-08-01T12:40:34;6.70;;;2.30;;
64387;SDS011;50709;52.648;4.764;2023-08-01T12:42:59;5.57;;;2.50;;
64387;SDS011;50709;52.648;4.764;2023-08-01T12:45:25;6.78;;;2.88;;
64387;SDS011;50709;52.648;4.764;2023-08-01T12:47:50;4.15;;;2.38;;
64387;SDS011;50709;52.648;4.764;2023-08-01T12:50:15;4.22;;;2.30;;
64387;SDS011;50709;52.648;4.764;2023-08-01T12:52:41;6.05;;;2.65;;
64387;SDS011;50709;52.648;4.764;2023-08-01T12:55:07;3.55;;;2.50;;
64387;SDS011;50709;52.648;4.764;2023-08-01T12:57:32;4.97;;;2.33;;
64387;SDS011;50709;52.648;4.764;2023-08-01T12:59:58;5.25;;;2.60;;
64387;SDS011;50709;52.648;4.764;2023-08-01T13:02:24;7.47;;;2.92;;
64387;SDS011;50709;52.648;4.764;2023-08-01T13:04:50;4.03;;;2.45;;
64387;SDS011;50709;52.648;4.764;2023-08-01T13:07:15;11.73;;;3.00;;
64387;SDS011;50709;52.648;4.764;2023-08-01T13:09:40;5.38;;;2.70;;
64387;SDS011;50709;52.648;4.764;2023-08-01T13:12:07;5.28;;;2.88;;
64387;SDS011;50709;52.648;4.764;2023-08-01T13:14:32;4.82;;;2.90;;
64387;SDS011;50709;52.648;4.764;2023-08-01T13:16:58;5.85;;;2.60;;
64387;SDS011;50709;52.648;4.764;2023-08-01T13:19:24;5.18;;;2.50;;
64387;SDS011;50709;52.648;4.764;2023-08-01T13:21:50;4.95;;;2.53;;
64387;SDS011;50709;52.648;4.764;2023-08-01T13:24:15;7.10;;;2.70;;
64387;SDS011;50709;52.648;4.764;2023-08-01T13:26:41;5.57;;;2.65;;
64387;SDS011;50709;52.648;4.764;2023-08-01T13:29:06;4.15;;;2.75;;
64387;SDS011;50709;52.648;4.764;2023-08-01T13:31:31;4.68;;;2.83;;
64387;SDS011;50709;52.648;4.764;2023-08-01T13:33:57;7.43;;;2.80;;
64387;SDS011;50709;52.648;4.764;2023-08-01T13:36:23;6.32;;;2.40;;
64387;SDS011;50709;52.648;4.764;2023-08-01T13:38:49;4.60;;;2.60;;
64387;SDS011;50709;52.648;4.764;2023-08-01T13:41:14;5.65;;;2.53;;
64387;SDS011;50709;52.648;4.764;2023-08-01T13:43:40;4.95;;;2.53;;
64387;SDS011;50709;52.648;4.764;2023-08-01T13:46:12;7.13;;;2.88;;
64387;SDS011;50709;52.648;4.764;2023-08-01T13:48:40;8.45;;;3.03;;
64387;SDS011;50709;52.648;4.764;2023-08-01T13:51:08;4.65;;;2.17;;
64387;SDS011;50709;52.648;4.764;2023-08-01T13:53:34;5.85;;;2.65;;
64387;SDS011;50709;52.648;4.764;2023-08-01T13:56:12;7.95;;;2.65;;
64387;SDS011;50709;52.648;4.764;2023-08-01T13:58:57;8.82;;;2.80;;
64387;SDS011;50709;52.648;4.764;2023-08-01T14:01:23;7.55;;;2.65;;
64387;SDS011;50709;52.648;4.764;2023-08-01T14:03:48;4.95;;;2.38;;
64387;SDS011;50709;52.648;4.764;2023-08-01T14:06:14;8.65;;;2.85;;
64387;SDS011;50709;52.648;4.764;2023-08-01T14:08:40;3.95;;;2.30;;
64387;SDS011;50709;52.648;4.764;2023-08-01T14:11:07;8.15;;;2.65;;
64387;SDS011;50709;52.648;4.764;2023-08-01T14:13:34;5.88;;;2.45;;
64387;SDS011;50709;52.648;4.764;2023-08-01T14:16:00;3.25;;;2.28;;
64387;SDS011;50709;52.648;4.764;2023-08-01T14:18:26;9.15;;;2.80;;
64387;SDS011;50709;52.648;4.764;2023-08-01T14:20:52;5.63;;;2.67;;
64387;SDS011;50709;52.648;4.764;2023-08-01T14:23:18;5.00;;;2.47;;
64387;SDS011;50709;52.648;4.764;2023-08-01T14:25:44;9.55;;;2.75;;
64387;SDS011;50709;52.648;4.764;2023-08-01T14:28:09;5.00;;;2.60;;
64387;SDS011;50709;52.648;4.764;2023-08-01T14:30:36;5.43;;;2.58;;
64387;SDS011;50709;52.648;4.764;2023-08-01T14:33:02;5.10;;;2.60;;
64387;SDS011;50709;52.648;4.764;2023-08-01T14:35:29;5.03;;;2.60;;
64387;SDS011;50709;52.648;4.764;2023-08-01T14:37:55;4.95;;;1.92;;
64387;SDS011;50709;52.648;4.764;2023-08-01T14:40:20;7.15;;;2.58;;
64387;SDS011;50709;52.648;4.764;2023-08-01T14:42:47;8.35;;;2.63;;
64387;SDS011;50709;52.648;4.764;2023-08-01T14:45:12;5.25;;;2.67;;